Pulpca — PHMT — position and weather

sailwx.info

Track history (hours):
 
Tides and Currents Weather Stations Pressure Air Temp Water Temp Dewpoint Dewpoint Depression Visibility Wind Speed Wind Dir Waves Ship Positions

Pulpca

Last reported at 2017-Nov-19 18:24 UTC. Time now 2017-Nov-21 00:52 UTC.
Position N 55°57' E 016°29'.

Length 205 m; draft 8 m.

Type: Ship (hazmat cat A). MMSI: 245097000.

Date/timePositionNaut miles runAvg speedWind from/ knotsBaromVisibWave heightAir tempDewpointWater temp
2017-Nov-19 18:24N 55°57' E 016°29'819.2
2017-Nov-19 18:00N 55°54' E 016°17'1019.1
2017-Nov-19 17:30N 55°49' E 016°02'1019.4
2017-Nov-19 17:00N 55°45' E 015°47'1019.5
2017-Nov-19 16:30N 55°40' E 015°32'1020.1
2017-Nov-19 16:00N 55°35' E 015°16'1020.3
2017-Nov-19 15:30N 55°30' E 015°00'1020.3
2017-Nov-19 15:00N 55°25' E 014°45'1019.6
2017-Nov-19 14:30N 55°18' E 014°33'1019.6
2017-Nov-19 14:00N 55°10' E 014°22'1019.9
2017-Nov-19 13:30N 55°03' E 014°11'1020.0
2017-Nov-19 13:00N 54°59' E 013°55'4220.2
2017-Nov-19 10:55N 54°45' E 012°46'1319.9
2017-Nov-19 10:16N 54°38' E 012°27'519.9
2017-Nov-19 10:00N 54°35' E 012°19'2116.5
2017-Nov-19 08:43N 54°25' E 011°48'420.4
2017-Nov-19 08:30N 54°26' E 011°41'1020.6
2017-Nov-19 08:00N 54°31' E 011°25'1020.6
2017-Nov-19 07:30N 54°35' E 011°09'1020.1
2017-Nov-19 07:00N 54°35' E 010°52'1020.0
2017-Nov-19 06:30N 54°34' E 010°35'26 8.3
2017-Nov-19 03:22N 54°21' E 009°56'3 8.3
2017-Nov-19 03:00N 54°22' E 009°51'4 7.3
2017-Nov-19 02:30N 54°21' E 009°45'2 4.3
2017-Nov-19 02:00N 54°19' E 009°43'3 6.8
2017-Nov-19 01:30N 54°17' E 009°38'4 7.6
2017-Nov-19 01:00N 54°13' E 009°36'4 8.2
2017-Nov-19 00:30N 54°11' E 009°30'4 8.5
2017-Nov-19 00:00N 54°09' E 009°23'4 7.4
2017-Nov-18 23:30N 54°06' E 009°20'4 7.6
2017-Nov-18 23:00N 54°02' E 009°18'2 3.7
2017-Nov-18 22:30N 54°01' E 009°18'4 7.7
2017-Nov-18 22:00N 53°57' E 009°14'2 3.3
2017-Nov-18 21:30N 53°56' E 009°13'3 5.6
2017-Nov-18 21:00N 53°54' E 009°09'1 1.2
2017-Nov-18 20:30N 53°54' E 009°09'1 1.9
2017-Nov-18 20:01N 53°53' E 009°07'2 4.1
2017-Nov-18 19:31N 53°52' E 009°04'714.7
2017-Nov-18 19:01N 53°50' E 008°52'612.9
2017-Nov-18 18:30N 53°53' E 008°42'5 9.1
2017-Nov-18 18:00N 53°57' E 008°38'916.9
2017-Nov-18 17:30N 53°59' E 008°24'1019.4
2017-Nov-18 17:01N 53°59' E 008°08'918.5
2017-Nov-18 16:30N 53°57' E 007°52'12617.4
2017-Nov-18 09:14N 53°13' E 004°32'417.7
2017-Nov-18 08:59N 53°09' E 004°29'1217.8
2017-Nov-18 08:19N 52°59' E 004°19'617.7
2017-Nov-18 08:00N 52°54' E 004°15'1317.9
2017-Nov-18 07:17N 52°43' E 004°04'518.4
2017-Nov-18 07:00N 52°39' E 003°59'918.7
2017-Nov-18 06:30N 52°32' E 003°48'1219.2
2017-Nov-18 05:53N 52°24' E 003°35'3719.8
2017-Nov-18 04:00N 51°48' E 003°18'1120.7
2017-Nov-18 03:29N 51°38' E 003°12'1020.2
2017-Nov-18 03:01N 51°30' E 003°04'611.6
2017-Nov-18 02:31N 51°24' E 003°07'918.1
2017-Nov-18 02:01N 51°24' E 003°22'916.8
2017-Nov-18 01:30N 51°26' E 003°35'4 8.8
2017-Nov-18 01:01N 51°26' E 003°42'714.7
2017-Nov-18 00:30N 51°21' E 003°51'714.2
2017-Nov-18 00:01N 51°26' E 003°59'612.4
2017-Nov-17 23:30N 51°22' E 004°07'4 8.9
2017-Nov-17 23:00N 51°22' E 004°14'4 8.7
2017-Nov-17 22:30N 51°18' E 004°17'2 4.3
2017-Nov-17 22:00N 51°16' E 004°17'0 0.2
2017-Nov-17 21:30N 51°16' E 004°17'1 1.9
2017-Nov-17 21:00N 51°16' E 004°15'1 2.1
2017-Nov-17 20:28N 51°15' E 004°14'0 0.0
2017-Nov-17 19:58N 51°15' E 004°14'0 0.0
2017-Nov-17 19:28N 51°15' E 004°14'0 0.0
2017-Nov-17 18:58N 51°15' E 004°14'0 0.0
2017-Nov-17 18:28N 51°15' E 004°14'0 0.0
2017-Nov-17 17:58N 51°15' E 004°14'0 0.0
2017-Nov-17 17:28N 51°15' E 004°14'0 0.0
2017-Nov-17 16:58N 51°15' E 004°14'0 0.0
2017-Nov-17 16:28N 51°15' E 004°14'0 0.0
2017-Nov-17 15:58N 51°15' E 004°14'0 0.0
2017-Nov-17 15:25N 51°15' E 004°14'0 0.0
2017-Nov-17 14:58N 51°15' E 004°14'0 0.0
2017-Nov-17 14:28N 51°15' E 004°14'0 0.0
2017-Nov-17 13:58N 51°15' E 004°14'0 0.0
2017-Nov-17 13:28N 51°15' E 004°14'0 0.0
2017-Nov-17 12:58N 51°15' E 004°14'0 0.0
2017-Nov-17 12:28N 51°15' E 004°14'0 0.0
2017-Nov-17 11:58N 51°15' E 004°14'0 0.0
2017-Nov-17 11:28N 51°15' E 004°14'0 0.0
2017-Nov-17 10:58N 51°15' E 004°14'0 0.0
2017-Nov-17 10:28N 51°15' E 004°14'0 0.0
2017-Nov-17 09:58N 51°15' E 004°14'0 0.0
2017-Nov-17 09:28N 51°15' E 004°14'0 0.0
2017-Nov-17 08:58N 51°15' E 004°14'0 0.0
2017-Nov-17 08:28N 51°15' E 004°14'0 0.0
2017-Nov-17 07:58N 51°15' E 004°14'0 0.2
2017-Nov-17 07:28N 51°15' E 004°14'0 0.0
2017-Nov-17 06:58N 51°15' E 004°14'0 0.0
2017-Nov-17 06:28N 51°15' E 004°14'0 0.0
2017-Nov-17 05:58N 51°15' E 004°14'0 0.0
2017-Nov-17 05:28N 51°15' E 004°14'0 0.0
2017-Nov-17 04:58N 51°15' E 004°14'0 0.0
2017-Nov-17 04:28N 51°15' E 004°14'0 0.0
2017-Nov-17 03:58N 51°15' E 004°14'0 0.0
2017-Nov-17 03:28N 51°15' E 004°14'0 0.0
2017-Nov-17 02:58N 51°15' E 004°14'0 0.0
2017-Nov-17 02:28N 51°15' E 004°14'0 0.0
2017-Nov-17 01:58N 51°15' E 004°14'0 0.0
2017-Nov-17 01:28N 51°15' E 004°14'0 0.0
2017-Nov-17 00:58N 51°15' E 004°14'0 0.0
2017-Nov-17 00:28N 51°15' E 004°14'0 0.0
2017-Nov-16 23:58N 51°15' E 004°14'0 0.0
2017-Nov-16 23:28N 51°15' E 004°14'0 0.0
2017-Nov-16 22:58N 51°15' E 004°14'0 0.0
2017-Nov-16 22:28N 51°15' E 004°14'0 0.0
2017-Nov-16 21:58N 51°15' E 004°14'0 0.0
2017-Nov-16 21:28N 51°15' E 004°14'0 0.0
2017-Nov-16 20:58N 51°15' E 004°14'0 0.0
2017-Nov-16 20:28N 51°15' E 004°14'0 0.0
2017-Nov-16 19:58N 51°15' E 004°14'0 0.0
2017-Nov-16 19:28N 51°15' E 004°14'0 0.0
2017-Nov-16 18:58N 51°15' E 004°14'0 0.0
2017-Nov-16 18:28N 51°15' E 004°14'0 0.0
2017-Nov-16 17:58N 51°15' E 004°14'0 0.0
2017-Nov-16 17:28N 51°15' E 004°14'0 0.0
2017-Nov-16 16:58N 51°15' E 004°14'0 0.0
2017-Nov-16 16:28N 51°15' E 004°14'0 0.0
2017-Nov-16 15:58N 51°15' E 004°14'0 0.0
2017-Nov-16 15:28N 51°15' E 004°14'0 0.0
2017-Nov-16 14:58N 51°15' E 004°14'0 0.0
2017-Nov-16 14:28N 51°15' E 004°14'0 0.0
2017-Nov-16 13:58N 51°15' E 004°14'0 0.0
2017-Nov-16 13:28N 51°15' E 004°14'0 0.0
2017-Nov-16 12:58N 51°15' E 004°14'0 0.0
2017-Nov-16 12:28N 51°15' E 004°14'0 0.0
2017-Nov-16 11:58N 51°15' E 004°14'0 0.0
2017-Nov-16 11:28N 51°15' E 004°14'0 0.0
2017-Nov-16 10:58N 51°15' E 004°14'0 0.0
2017-Nov-16 10:28N 51°15' E 004°14'0 0.0
2017-Nov-16 09:58N 51°15' E 004°14'0 0.0
2017-Nov-16 09:28N 51°15' E 004°14'0 0.0
2017-Nov-16 08:58N 51°15' E 004°14'0 0.0
2017-Nov-16 08:28N 51°15' E 004°14'0 0.0
2017-Nov-16 07:58N 51°15' E 004°14'0 0.0
2017-Nov-16 07:28N 51°15' E 004°14'0 0.0
2017-Nov-16 06:58N 51°15' E 004°14'0 0.0
2017-Nov-16 06:28N 51°15' E 004°14'0 0.0
2017-Nov-16 05:58N 51°15' E 004°14'0 0.0
2017-Nov-16 05:28N 51°15' E 004°14'0 0.0
2017-Nov-16 04:58N 51°15' E 004°14'0 0.0
2017-Nov-16 04:25N 51°15' E 004°14'0 0.0
2017-Nov-16 03:58N 51°15' E 004°14'0 0.0
2017-Nov-16 03:28N 51°15' E 004°14'0 0.0
2017-Nov-16 02:58N 51°15' E 004°14'0 0.0
2017-Nov-16 02:28N 51°15' E 004°14'0 0.0
2017-Nov-16 01:58N 51°15' E 004°14'0 0.0
2017-Nov-16 01:28N 51°15' E 004°14'0 0.0
2017-Nov-16 00:58N 51°15' E 004°14'0 0.0
2017-Nov-16 00:28N 51°15' E 004°14'0 0.0
2017-Nov-15 23:58N 51°15' E 004°14'0 0.0
2017-Nov-15 23:28N 51°15' E 004°14'0 0.0
2017-Nov-15 22:58N 51°15' E 004°14'0 0.0
2017-Nov-15 22:28N 51°15' E 004°14'0 0.0
2017-Nov-15 21:58N 51°15' E 004°14'0 0.0
2017-Nov-15 21:28N 51°15' E 004°14'0 0.0
2017-Nov-15 20:58N 51°15' E 004°14'0 0.0
2017-Nov-15 20:28N 51°15' E 004°14'0 0.0
2017-Nov-15 19:58N 51°15' E 004°14'0 0.0
2017-Nov-15 19:25N 51°15' E 004°14'0 0.0
2017-Nov-15 18:58N 51°15' E 004°14'0 0.0
2017-Nov-15 18:28N 51°15' E 004°14'0 0.0
2017-Nov-15 17:58N 51°15' E 004°14'0 0.0
2017-Nov-15 17:28N 51°15' E 004°14'0 0.0
2017-Nov-15 16:58N 51°15' E 004°14'0 0.0
2017-Nov-15 16:28N 51°15' E 004°14'0 0.0
2017-Nov-15 15:58N 51°15' E 004°14'0 0.0
2017-Nov-15 15:28N 51°15' E 004°14'0 0.0
2017-Nov-15 14:58N 51°15' E 004°14'0 0.0
2017-Nov-15 14:28N 51°15' E 004°14'0 0.0
2017-Nov-15 13:58N 51°15' E 004°14'0 0.0
2017-Nov-15 13:28N 51°15' E 004°14'0 0.0
2017-Nov-15 12:58N 51°15' E 004°14'0 0.0
2017-Nov-15 12:28N 51°15' E 004°14'0 0.0
2017-Nov-15 11:58N 51°15' E 004°14'0 0.0
2017-Nov-15 11:28N 51°15' E 004°14'0 0.0
2017-Nov-15 10:58N 51°15' E 004°14'0 0.0
2017-Nov-15 10:28N 51°15' E 004°14'0 0.0
2017-Nov-15 09:58N 51°15' E 004°14'0 0.0
2017-Nov-15 09:28N 51°15' E 004°14'0 0.1
2017-Nov-15 08:55N 51°15' E 004°14'0 0.0
2017-Nov-15 08:28N 51°15' E 004°14'0 0.0
2017-Nov-15 07:58N 51°15' E 004°14'0 0.0
2017-Nov-15 07:28N 51°15' E 004°14'0 0.0
2017-Nov-15 06:58N 51°15' E 004°14'0 0.0
2017-Nov-15 06:25N 51°15' E 004°14'0 0.0
2017-Nov-15 05:58N 51°15' E 004°14'0 0.0
2017-Nov-15 05:28N 51°15' E 004°14'0 0.0
2017-Nov-15 04:58N 51°15' E 004°14'0 0.0
2017-Nov-15 04:28N 51°15' E 004°14'0 0.0
2017-Nov-15 03:59N 51°15' E 004°14'0 0.0
2017-Nov-15 03:28N 51°15' E 004°14'0 0.0
2017-Nov-15 02:58N 51°15' E 004°14'0 0.0
2017-Nov-15 02:28N 51°15' E 004°14'0 0.0
2017-Nov-15 01:58N 51°15' E 004°14'0 0.0
2017-Nov-15 01:28N 51°15' E 004°14'0 0.0
2017-Nov-15 00:58N 51°15' E 004°14'0 0.0
2017-Nov-15 00:28N 51°15' E 004°14'0 0.0
2017-Nov-14 23:58N 51°15' E 004°14'0 0.0
2017-Nov-14 23:28N 51°15' E 004°14'0 0.0
2017-Nov-14 22:55N 51°15' E 004°14'0 0.0
2017-Nov-14 22:28N 51°15' E 004°14'0 0.0
2017-Nov-14 21:58N 51°15' E 004°14'0 0.0
2017-Nov-14 21:28N 51°15' E 004°14'0 0.0
2017-Nov-14 20:58N 51°15' E 004°14'0 0.0
2017-Nov-14 20:28N 51°15' E 004°14'0 0.0
2017-Nov-14 19:58N 51°15' E 004°14'0 0.0
2017-Nov-14 19:28N 51°15' E 004°14'0 0.0
2017-Nov-14 18:58N 51°15' E 004°14'0 0.0
2017-Nov-14 18:28N 51°15' E 004°14'0 0.0
2017-Nov-14 17:58N 51°15' E 004°14'0 0.0
2017-Nov-14 17:28N 51°15' E 004°14'0 0.0
2017-Nov-14 16:58N 51°15' E 004°14'0 0.0
2017-Nov-14 16:28N 51°15' E 004°14'0 0.0
2017-Nov-14 15:58N 51°15' E 004°14'0 0.0
2017-Nov-14 15:28N 51°15' E 004°14'0 0.0
2017-Nov-14 14:58N 51°15' E 004°14'0 0.0
2017-Nov-14 14:28N 51°15' E 004°14'0 0.0
2017-Nov-14 13:58N 51°15' E 004°14'0 0.0
2017-Nov-14 13:28N 51°15' E 004°14'0 0.0
2017-Nov-14 12:58N 51°15' E 004°14'0 0.0
2017-Nov-14 12:30N 51°15' E 004°14'1 2.5
2017-Nov-14 12:00N 51°16' E 004°15'1 1.6
2017-Nov-14 11:31N 51°16' E 004°17'0 0.3
2017-Nov-14 11:00N 51°16' E 004°17'0 0.7
2017-Nov-14 10:31N 51°16' E 004°18'1 2.3
2017-Nov-14 10:00N 51°17' E 004°19'4 7.5
2017-Nov-14 09:30N 51°20' E 004°16'510.2
2017-Nov-14 09:01N 51°24' E 004°11'611.0
2017-Nov-14 08:31N 51°24' E 004°02'4 8.3
2017-Nov-14 08:00N 51°22' E 003°56'613.0
2017-Nov-14 07:31N 51°22' E 003°46'612.7
2017-Nov-14 07:00N 51°26' E 003°38'612.4
2017-Nov-14 06:31N 51°25' E 003°28'714.5
2017-Nov-14 06:01N 51°24' E 003°17'713.6
2017-Nov-14 05:30N 51°24' E 003°06'612.0
2017-Nov-14 05:00N 51°28' E 002°59'714.6
2017-Nov-14 04:30N 51°33' E 003°07'714.2
2017-Nov-14 04:00N 51°40' E 003°11'714.4
2017-Nov-14 03:30N 51°46' E 003°15'714.4
2017-Nov-14 03:00N 51°54' E 003°15'714.7
2017-Nov-14 02:30N 52°01' E 003°19'815.4
2017-Nov-14 01:59N 52°08' E 003°22'815.5
2017-Nov-14 01:29N 52°16' E 003°24'815.5
2017-Nov-14 00:59N 52°24' E 003°27'815.6
2017-Nov-14 00:29N 52°31' E 003°29'715.4
2017-Nov-14 00:00N 52°38' E 003°32'815.5
2017-Nov-13 23:30N 52°45' E 003°40'815.3
2017-Nov-13 23:00N 52°51' E 003°48'714.7
2017-Nov-13 22:30N 52°56' E 003°56'815.2
2017-Nov-13 21:59N 53°01' E 004°06'22111.0
2017-Nov-13 01:56N 54°21' E 009°53'20 4.8
2017-Nov-12 21:49N 54°31' E 010°22'516.8
2017-Nov-12 21:31N 54°33' E 010°31'917.0
2017-Nov-12 21:01N 54°35' E 010°45'917.4
2017-Nov-12 20:31N 54°36' E 010°60'917.3
2017-Nov-12 20:01N 54°35' E 011°15'917.9
2017-Nov-12 19:31N 54°31' E 011°28'917.6
2017-Nov-12 19:01N 54°27' E 011°42'917.4
2017-Nov-12 18:30N 54°26' E 011°57'816.6
2017-Nov-12 18:00N 54°27' E 012°11'6417.2
2017-Nov-12 14:18N 55°01' E 013°44'2517.1
2017-Nov-12 12:51N 55°15' E 014°20'617.8
2017-Nov-12 12:30N 55°20' E 014°27'918.1
2017-Nov-12 12:00N 55°28' E 014°37'918.0
2017-Nov-12 11:29N 55°32' E 014°51'817.9
2017-Nov-12 11:00N 55°36' E 015°04'917.9
2017-Nov-12 10:30N 55°41' E 015°17'917.9
2017-Nov-12 10:01N 55°46' E 015°31'917.8
2017-Nov-12 09:30N 55°50' E 015°45'917.9
2017-Nov-12 09:00N 55°54' E 015°59'917.9
2017-Nov-12 08:31N 55°58' E 016°13'917.8
2017-Nov-12 08:01N 56°03' E 016°27'917.9
2017-Nov-12 07:31N 56°07' E 016°41'917.3
2017-Nov-12 07:01N 56°15' E 016°49'27817.5
2017-Nov-11 15:08N 59°36' E 022°49'219.4
2017-Nov-11 15:01N 59°38' E 022°53'714.0
2017-Nov-11 14:30N 59°42' E 023°05'4 8.6
2017-Nov-11 14:00N 59°46' E 023°02'4 0.4
2017-Nov-11 03:22N 59°49' E 022°57'3 8.1
2017-Nov-11 03:01N 59°46' E 023°00'816.4
2017-Nov-11 02:31N 59°42' E 023°14'918.1
2017-Nov-11 02:01N 59°42' E 023°32'918.1
2017-Nov-11 01:31N 59°44' E 023°50'918.0
2017-Nov-11 01:00N 59°46' E 024°07'918.1
2017-Nov-11 00:30N 59°48' E 024°24'918.4
2017-Nov-11 00:00N 59°50' E 024°42'918.5
2017-Nov-10 23:30N 59°51' E 025°01'918.3
2017-Nov-10 23:00N 59°53' E 025°19'918.0
2017-Nov-10 22:28N 59°55' E 025°37'1717.9
2017-Nov-10 21:31N 60°03' E 026°07'018.2
2017-Nov-10 21:30N 60°03' E 026°08'918.2
2017-Nov-10 21:00N 60°09' E 026°21'917.1
2017-Nov-10 20:31N 60°16' E 026°30'917.8
2017-Nov-10 20:01N 60°22' E 026°43'816.1
2017-Nov-10 19:31N 60°26' E 026°58'3 6.0
2017-Nov-10 19:00N 60°29' E 026°57'0 0.0
2017-Nov-10 18:29N 60°29' E 026°57'0 0.0
2017-Nov-10 17:59N 60°29' E 026°57'0 0.0
2017-Nov-10 17:29N 60°29' E 026°57'0 0.0
2017-Nov-10 16:59N 60°29' E 026°57'0 0.0
2017-Nov-10 16:29N 60°29' E 026°57'0 0.0
2017-Nov-10 15:59N 60°29' E 026°57'0 0.0
2017-Nov-10 15:29N 60°29' E 026°57'0 0.0
2017-Nov-10 14:59N 60°29' E 026°57'0 0.0
2017-Nov-10 14:29N 60°29' E 026°57'0 0.0
2017-Nov-10 13:59N 60°29' E 026°57'0 0.0
2017-Nov-10 13:29N 60°29' E 026°57'0 0.0
2017-Nov-10 12:59N 60°29' E 026°57'0 0.0
2017-Nov-10 12:29N 60°29' E 026°57'0 0.0
2017-Nov-10 11:59N 60°29' E 026°57'0 0.0
2017-Nov-10 11:29N 60°29' E 026°57'0 0.0
2017-Nov-10 10:59N 60°29' E 026°57'0 0.0
2017-Nov-10 10:23N 60°29' E 026°57'0 0.0
2017-Nov-10 09:59N 60°29' E 026°57'0 0.0
2017-Nov-10 09:29N 60°29' E 026°57'0 0.0
2017-Nov-10 08:59N 60°29' E 026°57'0 0.0
2017-Nov-10 08:29N 60°29' E 026°57'0 0.0
2017-Nov-10 07:59N 60°29' E 026°57'0 0.0
2017-Nov-10 07:29N 60°29' E 026°57'0 0.0
2017-Nov-10 06:59N 60°29' E 026°57'0 0.0
2017-Nov-10 06:29N 60°29' E 026°57'0 0.0
2017-Nov-10 05:59N 60°29' E 026°57'0 0.0
2017-Nov-10 05:29N 60°29' E 026°57'0 0.0
2017-Nov-10 04:59N 60°29' E 026°57'0 0.0
2017-Nov-10 04:29N 60°29' E 026°57'0 0.0
2017-Nov-10 03:59N 60°29' E 026°57'0 0.0
2017-Nov-10 03:29N 60°29' E 026°57'0 0.0
2017-Nov-10 02:59N 60°29' E 026°57'0 0.0
2017-Nov-10 02:29N 60°29' E 026°57'0 0.0
2017-Nov-10 01:59N 60°29' E 026°57'0 0.0
2017-Nov-10 01:29N 60°29' E 026°57'0 0.0
2017-Nov-10 00:59N 60°29' E 026°57'0 0.0
2017-Nov-10 00:29N 60°29' E 026°57'0 0.0
2017-Nov-09 23:59N 60°29' E 026°57'0 0.0
2017-Nov-09 23:29N 60°29' E 026°57'0 0.0
2017-Nov-09 22:59N 60°29' E 026°57'0 0.0
2017-Nov-09 22:29N 60°29' E 026°57'0 0.0
2017-Nov-09 21:59N 60°29' E 026°57'0 0.0
2017-Nov-09 21:29N 60°29' E 026°57'0 0.0
2017-Nov-09 20:59N 60°29' E 026°57'0 0.0
2017-Nov-09 20:29N 60°29' E 026°57'0 0.0
2017-Nov-09 19:59N 60°29' E 026°57'0 0.0
2017-Nov-09 19:29N 60°29' E 026°57'0 0.0
2017-Nov-09 18:59N 60°29' E 026°57'0 0.0
2017-Nov-09 18:29N 60°29' E 026°57'  
Track history (hours):
 
Tides and Currents Weather Stations Pressure Air Temp Water Temp Dewpoint Dewpoint Depression Visibility Wind Speed Wind Dir Waves Ship Positions

Pulpca

Last reported at 2017-Nov-19 18:24 UTC. Time now 2017-Nov-21 00:52 UTC.
Position N 55°57' E 016°29'.

Length 205 m; draft 8 m.

Type: Ship (hazmat cat A). MMSI: 245097000.

Date/timePositionNaut miles runAvg speedWind from/ knotsBaromVisibWave heightAir tempDewpointWater temp
2017-Nov-19 18:24N 55°57' E 016°29'819.2
2017-Nov-19 18:00N 55°54' E 016°17'1019.1
2017-Nov-19 17:30N 55°49' E 016°02'1019.4
2017-Nov-19 17:00N 55°45' E 015°47'1019.5
2017-Nov-19 16:30N 55°40' E 015°32'1020.1
2017-Nov-19 16:00N 55°35' E 015°16'1020.3
2017-Nov-19 15:30N 55°30' E 015°00'1020.3
2017-Nov-19 15:00N 55°25' E 014°45'1019.6
2017-Nov-19 14:30N 55°18' E 014°33'1019.6
2017-Nov-19 14:00N 55°10' E 014°22'1019.9
2017-Nov-19 13:30N 55°03' E 014°11'1020.0
2017-Nov-19 13:00N 54°59' E 013°55'4220.2
2017-Nov-19 10:55N 54°45' E 012°46'1319.9
2017-Nov-19 10:16N 54°38' E 012°27'519.9
2017-Nov-19 10:00N 54°35' E 012°19'2116.5
2017-Nov-19 08:43N 54°25' E 011°48'420.4
2017-Nov-19 08:30N 54°26' E 011°41'1020.6
2017-Nov-19 08:00N 54°31' E 011°25'1020.6
2017-Nov-19 07:30N 54°35' E 011°09'1020.1
2017-Nov-19 07:00N 54°35' E 010°52'1020.0
2017-Nov-19 06:30N 54°34' E 010°35'26 8.3
2017-Nov-19 03:22N 54°21' E 009°56'3 8.3
2017-Nov-19 03:00N 54°22' E 009°51'4 7.3
2017-Nov-19 02:30N 54°21' E 009°45'2 4.3
2017-Nov-19 02:00N 54°19' E 009°43'3 6.8
2017-Nov-19 01:30N 54°17' E 009°38'4 7.6
2017-Nov-19 01:00N 54°13' E 009°36'4 8.2
2017-Nov-19 00:30N 54°11' E 009°30'4 8.5
2017-Nov-19 00:00N 54°09' E 009°23'4 7.4
2017-Nov-18 23:30N 54°06' E 009°20'4 7.6
2017-Nov-18 23:00N 54°02' E 009°18'2 3.7
2017-Nov-18 22:30N 54°01' E 009°18'4 7.7
2017-Nov-18 22:00N 53°57' E 009°14'2 3.3
2017-Nov-18 21:30N 53°56' E 009°13'3 5.6
2017-Nov-18 21:00N 53°54' E 009°09'1 1.2
2017-Nov-18 20:30N 53°54' E 009°09'1 1.9
2017-Nov-18 20:01N 53°53' E 009°07'2 4.1
2017-Nov-18 19:31N 53°52' E 009°04'714.7
2017-Nov-18 19:01N 53°50' E 008°52'612.9
2017-Nov-18 18:30N 53°53' E 008°42'5 9.1
2017-Nov-18 18:00N 53°57' E 008°38'916.9
2017-Nov-18 17:30N 53°59' E 008°24'1019.4
2017-Nov-18 17:01N 53°59' E 008°08'918.5
2017-Nov-18 16:30N 53°57' E 007°52'12617.4
2017-Nov-18 09:14N 53°13' E 004°32'417.7
2017-Nov-18 08:59N 53°09' E 004°29'1217.8
2017-Nov-18 08:19N 52°59' E 004°19'617.7
2017-Nov-18 08:00N 52°54' E 004°15'1317.9
2017-Nov-18 07:17N 52°43' E 004°04'518.4
2017-Nov-18 07:00N 52°39' E 003°59'918.7
2017-Nov-18 06:30N 52°32' E 003°48'1219.2
2017-Nov-18 05:53N 52°24' E 003°35'3719.8
2017-Nov-18 04:00N 51°48' E 003°18'1120.7
2017-Nov-18 03:29N 51°38' E 003°12'1020.2
2017-Nov-18 03:01N 51°30' E 003°04'611.6
2017-Nov-18 02:31N 51°24' E 003°07'918.1
2017-Nov-18 02:01N 51°24' E 003°22'916.8
2017-Nov-18 01:30N 51°26' E 003°35'4 8.8
2017-Nov-18 01:01N 51°26' E 003°42'714.7
2017-Nov-18 00:30N 51°21' E 003°51'714.2
2017-Nov-18 00:01N 51°26' E 003°59'612.4
2017-Nov-17 23:30N 51°22' E 004°07'4 8.9
2017-Nov-17 23:00N 51°22' E 004°14'4 8.7
2017-Nov-17 22:30N 51°18' E 004°17'2 4.3
2017-Nov-17 22:00N 51°16' E 004°17'0 0.2
2017-Nov-17 21:30N 51°16' E 004°17'1 1.9
2017-Nov-17 21:00N 51°16' E 004°15'1 2.1
2017-Nov-17 20:28N 51°15' E 004°14'0 0.0
2017-Nov-17 19:58N 51°15' E 004°14'0 0.0
2017-Nov-17 19:28N 51°15' E 004°14'0 0.0
2017-Nov-17 18:58N 51°15' E 004°14'0 0.0
2017-Nov-17 18:28N 51°15' E 004°14'0 0.0
2017-Nov-17 17:58N 51°15' E 004°14'0 0.0
2017-Nov-17 17:28N 51°15' E 004°14'0 0.0
2017-Nov-17 16:58N 51°15' E 004°14'0 0.0
2017-Nov-17 16:28N 51°15' E 004°14'0 0.0
2017-Nov-17 15:58N 51°15' E 004°14'0 0.0
2017-Nov-17 15:25N 51°15' E 004°14'0 0.0
2017-Nov-17 14:58N 51°15' E 004°14'0 0.0
2017-Nov-17 14:28N 51°15' E 004°14'0 0.0
2017-Nov-17 13:58N 51°15' E 004°14'0 0.0
2017-Nov-17 13:28N 51°15' E 004°14'0 0.0
2017-Nov-17 12:58N 51°15' E 004°14'0 0.0
2017-Nov-17 12:28N 51°15' E 004°14'0 0.0
2017-Nov-17 11:58N 51°15' E 004°14'0 0.0
2017-Nov-17 11:28N 51°15' E 004°14'0 0.0
2017-Nov-17 10:58N 51°15' E 004°14'0 0.0
2017-Nov-17 10:28N 51°15' E 004°14'0 0.0
2017-Nov-17 09:58N 51°15' E 004°14'0 0.0
2017-Nov-17 09:28N 51°15' E 004°14'0 0.0
2017-Nov-17 08:58N 51°15' E 004°14'0 0.0
2017-Nov-17 08:28N 51°15' E 004°14'0 0.0
2017-Nov-17 07:58N 51°15' E 004°14'0 0.2
2017-Nov-17 07:28N 51°15' E 004°14'0 0.0
2017-Nov-17 06:58N 51°15' E 004°14'0 0.0
2017-Nov-17 06:28N 51°15' E 004°14'0 0.0
2017-Nov-17 05:58N 51°15' E 004°14'0 0.0
2017-Nov-17 05:28N 51°15' E 004°14'0 0.0
2017-Nov-17 04:58N 51°15' E 004°14'0 0.0
2017-Nov-17 04:28N 51°15' E 004°14'0 0.0
2017-Nov-17 03:58N 51°15' E 004°14'0 0.0
2017-Nov-17 03:28N 51°15' E 004°14'0 0.0
2017-Nov-17 02:58N 51°15' E 004°14'0 0.0
2017-Nov-17 02:28N 51°15' E 004°14'0 0.0
2017-Nov-17 01:58N 51°15' E 004°14'0 0.0
2017-Nov-17 01:28N 51°15' E 004°14'0 0.0
2017-Nov-17 00:58N 51°15' E 004°14'0 0.0
2017-Nov-17 00:28N 51°15' E 004°14'0 0.0
2017-Nov-16 23:58N 51°15' E 004°14'0 0.0
2017-Nov-16 23:28N 51°15' E 004°14'0 0.0
2017-Nov-16 22:58N 51°15' E 004°14'0 0.0
2017-Nov-16 22:28N 51°15' E 004°14'0 0.0
2017-Nov-16 21:58N 51°15' E 004°14'0 0.0
2017-Nov-16 21:28N 51°15' E 004°14'0 0.0
2017-Nov-16 20:58N 51°15' E 004°14'0 0.0
2017-Nov-16 20:28N 51°15' E 004°14'0 0.0
2017-Nov-16 19:58N 51°15' E 004°14'0 0.0
2017-Nov-16 19:28N 51°15' E 004°14'0 0.0
2017-Nov-16 18:58N 51°15' E 004°14'0 0.0
2017-Nov-16 18:28N 51°15' E 004°14'0 0.0
2017-Nov-16 17:58N 51°15' E 004°14'0 0.0
2017-Nov-16 17:28N 51°15' E 004°14'0 0.0
2017-Nov-16 16:58N 51°15' E 004°14'0 0.0
2017-Nov-16 16:28N 51°15' E 004°14'0 0.0
2017-Nov-16 15:58N 51°15' E 004°14'0 0.0
2017-Nov-16 15:28N 51°15' E 004°14'0 0.0
2017-Nov-16 14:58N 51°15' E 004°14'0 0.0
2017-Nov-16 14:28N 51°15' E 004°14'0 0.0
2017-Nov-16 13:58N 51°15' E 004°14'0 0.0
2017-Nov-16 13:28N 51°15' E 004°14'0 0.0
2017-Nov-16 12:58N 51°15' E 004°14'0 0.0
2017-Nov-16 12:28N 51°15' E 004°14'0 0.0
2017-Nov-16 11:58N 51°15' E 004°14'0 0.0
2017-Nov-16 11:28N 51°15' E 004°14'0 0.0
2017-Nov-16 10:58N 51°15' E 004°14'0 0.0
2017-Nov-16 10:28N 51°15' E 004°14'0 0.0
2017-Nov-16 09:58N 51°15' E 004°14'0 0.0
2017-Nov-16 09:28N 51°15' E 004°14'0 0.0
2017-Nov-16 08:58N 51°15' E 004°14'0 0.0
2017-Nov-16 08:28N 51°15' E 004°14'0 0.0
2017-Nov-16 07:58N 51°15' E 004°14'0 0.0
2017-Nov-16 07:28N 51°15' E 004°14'0 0.0
2017-Nov-16 06:58N 51°15' E 004°14'0 0.0
2017-Nov-16 06:28N 51°15' E 004°14'0 0.0
2017-Nov-16 05:58N 51°15' E 004°14'0 0.0
2017-Nov-16 05:28N 51°15' E 004°14'0 0.0
2017-Nov-16 04:58N 51°15' E 004°14'0 0.0
2017-Nov-16 04:25N 51°15' E 004°14'0 0.0
2017-Nov-16 03:58N 51°15' E 004°14'0 0.0
2017-Nov-16 03:28N 51°15' E 004°14'0 0.0
2017-Nov-16 02:58N 51°15' E 004°14'0 0.0
2017-Nov-16 02:28N 51°15' E 004°14'0 0.0
2017-Nov-16 01:58N 51°15' E 004°14'0 0.0
2017-Nov-16 01:28N 51°15' E 004°14'0 0.0
2017-Nov-16 00:58N 51°15' E 004°14'0 0.0
2017-Nov-16 00:28N 51°15' E 004°14'0 0.0
2017-Nov-15 23:58N 51°15' E 004°14'0 0.0
2017-Nov-15 23:28N 51°15' E 004°14'0 0.0
2017-Nov-15 22:58N 51°15' E 004°14'0 0.0
2017-Nov-15 22:28N 51°15' E 004°14'0 0.0
2017-Nov-15 21:58N 51°15' E 004°14'0 0.0
2017-Nov-15 21:28N 51°15' E 004°14'0 0.0
2017-Nov-15 20:58N 51°15' E 004°14'0 0.0
2017-Nov-15 20:28N 51°15' E 004°14'0 0.0
2017-Nov-15 19:58N 51°15' E 004°14'0 0.0
2017-Nov-15 19:25N 51°15' E 004°14'0 0.0
2017-Nov-15 18:58N 51°15' E 004°14'0 0.0
2017-Nov-15 18:28N 51°15' E 004°14'0 0.0
2017-Nov-15 17:58N 51°15' E 004°14'0 0.0
2017-Nov-15 17:28N 51°15' E 004°14'0 0.0
2017-Nov-15 16:58N 51°15' E 004°14'0 0.0
2017-Nov-15 16:28N 51°15' E 004°14'0 0.0
2017-Nov-15 15:58N 51°15' E 004°14'0 0.0
2017-Nov-15 15:28N 51°15' E 004°14'0 0.0
2017-Nov-15 14:58N 51°15' E 004°14'0 0.0
2017-Nov-15 14:28N 51°15' E 004°14'0 0.0
2017-Nov-15 13:58N 51°15' E 004°14'0 0.0
2017-Nov-15 13:28N 51°15' E 004°14'0 0.0
2017-Nov-15 12:58N 51°15' E 004°14'0 0.0
2017-Nov-15 12:28N 51°15' E 004°14'0 0.0
2017-Nov-15 11:58N 51°15' E 004°14'0 0.0
2017-Nov-15 11:28N 51°15' E 004°14'0 0.0
2017-Nov-15 10:58N 51°15' E 004°14'0 0.0
2017-Nov-15 10:28N 51°15' E 004°14'0 0.0
2017-Nov-15 09:58N 51°15' E 004°14'0 0.0
2017-Nov-15 09:28N 51°15' E 004°14'0 0.1
2017-Nov-15 08:55N 51°15' E 004°14'0 0.0
2017-Nov-15 08:28N 51°15' E 004°14'0 0.0
2017-Nov-15 07:58N 51°15' E 004°14'0 0.0
2017-Nov-15 07:28N 51°15' E 004°14'0 0.0
2017-Nov-15 06:58N 51°15' E 004°14'0 0.0
2017-Nov-15 06:25N 51°15' E 004°14'0 0.0
2017-Nov-15 05:58N 51°15' E 004°14'0 0.0
2017-Nov-15 05:28N 51°15' E 004°14'0 0.0
2017-Nov-15 04:58N 51°15' E 004°14'0 0.0
2017-Nov-15 04:28N 51°15' E 004°14'0 0.0
2017-Nov-15 03:59N 51°15' E 004°14'0 0.0
2017-Nov-15 03:28N 51°15' E 004°14'0 0.0
2017-Nov-15 02:58N 51°15' E 004°14'0 0.0
2017-Nov-15 02:28N 51°15' E 004°14'0 0.0
2017-Nov-15 01:58N 51°15' E 004°14'0 0.0
2017-Nov-15 01:28N 51°15' E 004°14'0 0.0
2017-Nov-15 00:58N 51°15' E 004°14'0 0.0
2017-Nov-15 00:28N 51°15' E 004°14'0 0.0
2017-Nov-14 23:58N 51°15' E 004°14'0 0.0
2017-Nov-14 23:28N 51°15' E 004°14'0 0.0
2017-Nov-14 22:55N 51°15' E 004°14'0 0.0
2017-Nov-14 22:28N 51°15' E 004°14'0 0.0
2017-Nov-14 21:58N 51°15' E 004°14'0 0.0
2017-Nov-14 21:28N 51°15' E 004°14'0 0.0
2017-Nov-14 20:58N 51°15' E 004°14'0 0.0
2017-Nov-14 20:28N 51°15' E 004°14'0 0.0
2017-Nov-14 19:58N 51°15' E 004°14'0 0.0
2017-Nov-14 19:28N 51°15' E 004°14'0 0.0
2017-Nov-14 18:58N 51°15' E 004°14'0 0.0
2017-Nov-14 18:28N 51°15' E 004°14'0 0.0
2017-Nov-14 17:58N 51°15' E 004°14'0 0.0
2017-Nov-14 17:28N 51°15' E 004°14'0 0.0
2017-Nov-14 16:58N 51°15' E 004°14'0 0.0
2017-Nov-14 16:28N 51°15' E 004°14'0 0.0
2017-Nov-14 15:58N 51°15' E 004°14'0 0.0
2017-Nov-14 15:28N 51°15' E 004°14'0 0.0
2017-Nov-14 14:58N 51°15' E 004°14'0 0.0
2017-Nov-14 14:28N 51°15' E 004°14'0 0.0
2017-Nov-14 13:58N 51°15' E 004°14'0 0.0
2017-Nov-14 13:28N 51°15' E 004°14'0 0.0
2017-Nov-14 12:58N 51°15' E 004°14'0 0.0
2017-Nov-14 12:30N 51°15' E 004°14'1 2.5
2017-Nov-14 12:00N 51°16' E 004°15'1 1.6
2017-Nov-14 11:31N 51°16' E 004°17'0 0.3
2017-Nov-14 11:00N 51°16' E 004°17'0 0.7
2017-Nov-14 10:31N 51°16' E 004°18'1 2.3
2017-Nov-14 10:00N 51°17' E 004°19'4 7.5
2017-Nov-14 09:30N 51°20' E 004°16'510.2
2017-Nov-14 09:01N 51°24' E 004°11'611.0
2017-Nov-14 08:31N 51°24' E 004°02'4 8.3
2017-Nov-14 08:00N 51°22' E 003°56'613.0
2017-Nov-14 07:31N 51°22' E 003°46'612.7
2017-Nov-14 07:00N 51°26' E 003°38'612.4
2017-Nov-14 06:31N 51°25' E 003°28'714.5
2017-Nov-14 06:01N 51°24' E 003°17'713.6
2017-Nov-14 05:30N 51°24' E 003°06'612.0
2017-Nov-14 05:00N 51°28' E 002°59'714.6
2017-Nov-14 04:30N 51°33' E 003°07'714.2
2017-Nov-14 04:00N 51°40' E 003°11'714.4
2017-Nov-14 03:30N 51°46' E 003°15'714.4
2017-Nov-14 03:00N 51°54' E 003°15'714.7
2017-Nov-14 02:30N 52°01' E 003°19'815.4
2017-Nov-14 01:59N 52°08' E 003°22'815.5
2017-Nov-14 01:29N 52°16' E 003°24'815.5
2017-Nov-14 00:59N 52°24' E 003°27'815.6
2017-Nov-14 00:29N 52°31' E 003°29'715.4
2017-Nov-14 00:00N 52°38' E 003°32'815.5
2017-Nov-13 23:30N 52°45' E 003°40'815.3
2017-Nov-13 23:00N 52°51' E 003°48'714.7
2017-Nov-13 22:30N 52°56' E 003°56'815.2
2017-Nov-13 21:59N 53°01' E 004°06'22111.0
2017-Nov-13 01:56N 54°21' E 009°53'20 4.8
2017-Nov-12 21:49N 54°31' E 010°22'516.8
2017-Nov-12 21:31N 54°33' E 010°31'917.0
2017-Nov-12 21:01N 54°35' E 010°45'917.4
2017-Nov-12 20:31N 54°36' E 010°60'917.3
2017-Nov-12 20:01N 54°35' E 011°15'917.9
2017-Nov-12 19:31N 54°31' E 011°28'917.6
2017-Nov-12 19:01N 54°27' E 011°42'917.4
2017-Nov-12 18:30N 54°26' E 011°57'816.6
2017-Nov-12 18:00N 54°27' E 012°11'6417.2
2017-Nov-12 14:18N 55°01' E 013°44'2517.1
2017-Nov-12 12:51N 55°15' E 014°20'617.8
2017-Nov-12 12:30N 55°20' E 014°27'918.1
2017-Nov-12 12:00N 55°28' E 014°37'918.0
2017-Nov-12 11:29N 55°32' E 014°51'817.9
2017-Nov-12 11:00N 55°36' E 015°04'917.9
2017-Nov-12 10:30N 55°41' E 015°17'917.9
2017-Nov-12 10:01N 55°46' E 015°31'917.8
2017-Nov-12 09:30N 55°50' E 015°45'917.9
2017-Nov-12 09:00N 55°54' E 015°59'917.9
2017-Nov-12 08:31N 55°58' E 016°13'917.8
2017-Nov-12 08:01N 56°03' E 016°27'917.9
2017-Nov-12 07:31N 56°07' E 016°41'917.3
2017-Nov-12 07:01N 56°15' E 016°49'27817.5
2017-Nov-11 15:08N 59°36' E 022°49'219.4
2017-Nov-11 15:01N 59°38' E 022°53'714.0
2017-Nov-11 14:30N 59°42' E 023°05'4 8.6
2017-Nov-11 14:00N 59°46' E 023°02'4 0.4
2017-Nov-11 03:22N 59°49' E 022°57'3 8.1
2017-Nov-11 03:01N 59°46' E 023°00'816.4
2017-Nov-11 02:31N 59°42' E 023°14'918.1
2017-Nov-11 02:01N 59°42' E 023°32'918.1
2017-Nov-11 01:31N 59°44' E 023°50'918.0
2017-Nov-11 01:00N 59°46' E 024°07'918.1
2017-Nov-11 00:30N 59°48' E 024°24'918.4
2017-Nov-11 00:00N 59°50' E 024°42'918.5
2017-Nov-10 23:30N 59°51' E 025°01'918.3
2017-Nov-10 23:00N 59°53' E 025°19'918.0
2017-Nov-10 22:28N 59°55' E 025°37'1717.9
2017-Nov-10 21:31N 60°03' E 026°07'018.2
2017-Nov-10 21:30N 60°03' E 026°08'918.2
2017-Nov-10 21:00N 60°09' E 026°21'917.1
2017-Nov-10 20:31N 60°16' E 026°30'917.8
2017-Nov-10 20:01N 60°22' E 026°43'816.1
2017-Nov-10 19:31N 60°26' E 026°58'3 6.0
2017-Nov-10 19:00N 60°29' E 026°57'0 0.0
2017-Nov-10 18:29N 60°29' E 026°57'0 0.0
2017-Nov-10 17:59N 60°29' E 026°57'0 0.0
2017-Nov-10 17:29N 60°29' E 026°57'0 0.0
2017-Nov-10 16:59N 60°29' E 026°57'0 0.0
2017-Nov-10 16:29N 60°29' E 026°57'0 0.0
2017-Nov-10 15:59N 60°29' E 026°57'0 0.0
2017-Nov-10 15:29N 60°29' E 026°57'0 0.0
2017-Nov-10 14:59N 60°29' E 026°57'0 0.0
2017-Nov-10 14:29N 60°29' E 026°57'0 0.0
2017-Nov-10 13:59N 60°29' E 026°57'0 0.0
2017-Nov-10 13:29N 60°29' E 026°57'0 0.0
2017-Nov-10 12:59N 60°29' E 026°57'0 0.0
2017-Nov-10 12:29N 60°29' E 026°57'0 0.0
2017-Nov-10 11:59N 60°29' E 026°57'0 0.0
2017-Nov-10 11:29N 60°29' E 026°57'0 0.0
2017-Nov-10 10:59N 60°29' E 026°57'0 0.0
2017-Nov-10 10:23N 60°29' E 026°57'0 0.0
2017-Nov-10 09:59N 60°29' E 026°57'0 0.0
2017-Nov-10 09:29N 60°29' E 026°57'0 0.0
2017-Nov-10 08:59N 60°29' E 026°57'0 0.0
2017-Nov-10 08:29N 60°29' E 026°57'0 0.0
2017-Nov-10 07:59N 60°29' E 026°57'0 0.0
2017-Nov-10 07:29N 60°29' E 026°57'0 0.0
2017-Nov-10 06:59N 60°29' E 026°57'0 0.0
2017-Nov-10 06:29N 60°29' E 026°57'0 0.0
2017-Nov-10 05:59N 60°29' E 026°57'0 0.0
2017-Nov-10 05:29N 60°29' E 026°57'0 0.0
2017-Nov-10 04:59N 60°29' E 026°57'0 0.0
2017-Nov-10 04:29N 60°29' E 026°57'0 0.0
2017-Nov-10 03:59N 60°29' E 026°57'0 0.0
2017-Nov-10 03:29N 60°29' E 026°57'0 0.0
2017-Nov-10 02:59N 60°29' E 026°57'0 0.0
2017-Nov-10 02:29N 60°29' E 026°57'0 0.0
2017-Nov-10 01:59N 60°29' E 026°57'0 0.0
2017-Nov-10 01:29N 60°29' E 026°57'0 0.0
2017-Nov-10 00:59N 60°29' E 026°57'0 0.0
2017-Nov-10 00:29N 60°29' E 026°57'0 0.0
2017-Nov-09 23:59N 60°29' E 026°57'0 0.0
2017-Nov-09 23:29N 60°29' E 026°57'0 0.0
2017-Nov-09 22:59N 60°29' E 026°57'0 0.0
2017-Nov-09 22:29N 60°29' E 026°57'0 0.0
2017-Nov-09 21:59N 60°29' E 026°57'0 0.0
2017-Nov-09 21:29N 60°29' E 026°57'0 0.0
2017-Nov-09 20:59N 60°29' E 026°57'0 0.0
2017-Nov-09 20:29N 60°29' E 026°57'0 0.0
2017-Nov-09 19:59N 60°29' E 026°57'0 0.0
2017-Nov-09 19:29N 60°29' E 026°57'0 0.0
2017-Nov-09 18:59N 60°29' E 026°57'0 0.0
2017-Nov-09 18:29N 60°29' E 026°57'  

Dump ship's entire track history